sensor_id;sensor_type;location;lat;lon;timestamp;P1;durP1;ratioP1;P2;durP2;ratioP2
13204;SDS011;6667;52.634;9.226;2023-03-31T06:02:02;4.00;;;1.67;;
13204;SDS011;6667;52.634;9.226;2023-03-31T06:04:29;2.80;;;1.40;;
13204;SDS011;6667;52.634;9.226;2023-03-31T06:06:56;6.57;;;2.43;;
13204;SDS011;6667;52.634;9.226;2023-03-31T06:09:23;6.70;;;1.80;;
13204;SDS011;6667;52.634;9.226;2023-03-31T06:11:50;2.70;;;1.60;;
13204;SDS011;6667;52.634;9.226;2023-03-31T06:14:17;6.37;;;2.00;;
13204;SDS011;6667;52.634;9.226;2023-03-31T06:16:44;5.07;;;1.80;;
13204;SDS011;6667;52.634;9.226;2023-03-31T06:19:13;3.00;;;1.43;;
13204;SDS011;6667;52.634;9.226;2023-03-31T06:21:39;2.77;;;1.77;;
13204;SDS011;6667;52.634;9.226;2023-03-31T06:24:07;5.77;;;1.53;;
13204;SDS011;6667;52.634;9.226;2023-03-31T06:26:34;6.33;;;1.90;;
13204;SDS011;6667;52.634;9.226;2023-03-31T06:29:00;4.97;;;1.50;;
13204;SDS011;6667;52.634;9.226;2023-03-31T06:31:27;5.53;;;2.57;;
13204;SDS011;6667;52.634;9.226;2023-03-31T06:33:54;3.90;;;2.10;;
13204;SDS011;6667;52.634;9.226;2023-03-31T06:36:22;7.23;;;2.00;;
13204;SDS011;6667;52.634;9.226;2023-03-31T06:38:49;5.37;;;1.67;;
13204;SDS011;6667;52.634;9.226;2023-03-31T06:41:17;5.80;;;1.60;;
13204;SDS011;6667;52.634;9.226;2023-03-31T06:43:46;3.97;;;1.73;;
13204;SDS011;6667;52.634;9.226;2023-03-31T06:46:13;7.80;;;1.70;;
13204;SDS011;6667;52.634;9.226;2023-03-31T06:48:40;6.47;;;1.67;;
13204;SDS011;6667;52.634;9.226;2023-03-31T06:51:07;1.83;;;1.10;;
13204;SDS011;6667;52.634;9.226;2023-03-31T06:53:35;3.93;;;1.43;;
13204;SDS011;6667;52.634;9.226;2023-03-31T06:56:04;3.97;;;1.27;;
13204;SDS011;6667;52.634;9.226;2023-03-31T06:58:31;6.17;;;1.47;;
13204;SDS011;6667;52.634;9.226;2023-03-31T07:01:00;4.13;;;1.30;;
13204;SDS011;6667;52.634;9.226;2023-03-31T07:03:27;5.77;;;1.40;;
13204;SDS011;6667;52.634;9.226;2023-03-31T07:05:54;4.00;;;1.60;;
13204;SDS011;6667;52.634;9.226;2023-03-31T07:08:22;4.13;;;1.53;;
13204;SDS011;6667;52.634;9.226;2023-03-31T07:10:52;4.73;;;1.80;;
13204;SDS011;6667;52.634;9.226;2023-03-31T07:13:21;2.53;;;1.23;;
13204;SDS011;6667;52.634;9.226;2023-03-31T07:15:48;4.47;;;1.30;;
13204;SDS011;6667;52.634;9.226;2023-03-31T07:18:15;3.80;;;1.77;;
13204;SDS011;6667;52.634;9.226;2023-03-31T07:20:43;5.07;;;1.70;;
13204;SDS011;6667;52.634;9.226;2023-03-31T07:23:12;4.37;;;1.60;;
13204;SDS011;6667;52.634;9.226;2023-03-31T07:25:39;6.77;;;1.70;;
13204;SDS011;6667;52.634;9.226;2023-03-31T07:28:08;4.40;;;1.70;;
13204;SDS011;6667;52.634;9.226;2023-03-31T07:30:36;6.77;;;1.90;;
13204;SDS011;6667;52.634;9.226;2023-03-31T07:33:04;3.00;;;2.10;;
13204;SDS011;6667;52.634;9.226;2023-03-31T07:35:31;5.73;;;1.43;;
13204;SDS011;6667;52.634;9.226;2023-03-31T07:37:58;5.77;;;1.67;;
13204;SDS011;6667;52.634;9.226;2023-03-31T07:40:25;4.90;;;1.70;;
13204;SDS011;6667;52.634;9.226;2023-03-31T07:42:54;6.00;;;1.77;;
13204;SDS011;6667;52.634;9.226;2023-03-31T07:45:24;4.27;;;2.03;;
13204;SDS011;6667;52.634;9.226;2023-03-31T07:47:51;12.13;;;1.83;;
13204;SDS011;6667;52.634;9.226;2023-03-31T07:50:19;6.80;;;2.07;;
13204;SDS011;6667;52.634;9.226;2023-03-31T07:52:46;6.73;;;2.37;;
13204;SDS011;6667;52.634;9.226;2023-03-31T07:55:14;3.03;;;2.20;;
13204;SDS011;6667;52.634;9.226;2023-03-31T07:57:41;2.97;;;1.70;;
13204;SDS011;6667;52.634;9.226;2023-03-31T08:00:10;5.27;;;2.30;;
13204;SDS011;6667;52.634;9.226;2023-03-31T08:02:39;8.07;;;2.30;;
13204;SDS011;6667;52.634;9.226;2023-03-31T08:05:08;4.43;;;2.20;;
13204;SDS011;6667;52.634;9.226;2023-03-31T08:07:39;3.50;;;2.23;;
13204;SDS011;6667;52.634;9.226;2023-03-31T08:10:07;3.90;;;2.30;;
13204;SDS011;6667;52.634;9.226;2023-03-31T08:12:36;4.57;;;2.03;;
13204;SDS011;6667;52.634;9.226;2023-03-31T08:15:03;5.63;;;2.40;;
13204;SDS011;6667;52.634;9.226;2023-03-31T08:17:31;3.33;;;2.20;;
13204;SDS011;6667;52.634;9.226;2023-03-31T08:19:59;5.23;;;1.87;;
13204;SDS011;6667;52.634;9.226;2023-03-31T08:22:26;4.63;;;2.17;;
13204;SDS011;6667;52.634;9.226;2023-03-31T08:24:52;7.00;;;2.30;;
13204;SDS011;6667;52.634;9.226;2023-03-31T08:27:19;3.83;;;2.13;;
13204;SDS011;6667;52.634;9.226;2023-03-31T08:29:46;5.07;;;2.50;;
13204;SDS011;6667;52.634;9.226;2023-03-31T08:32:14;5.10;;;2.73;;
13204;SDS011;6667;52.634;9.226;2023-03-31T08:34:40;4.80;;;2.27;;
13204;SDS011;6667;52.634;9.226;2023-03-31T08:37:09;4.97;;;2.60;;
13204;SDS011;6667;52.634;9.226;2023-03-31T08:39:35;5.57;;;2.57;;
13204;SDS011;6667;52.634;9.226;2023-03-31T08:42:03;7.57;;;2.27;;
13204;SDS011;6667;52.634;9.226;2023-03-31T08:44:37;4.07;;;1.80;;
13204;SDS011;6667;52.634;9.226;2023-03-31T08:47:09;5.87;;;2.40;;
13204;SDS011;6667;52.634;9.226;2023-03-31T08:49:42;5.47;;;2.03;;
13204;SDS011;6667;52.634;9.226;2023-03-31T08:52:13;7.23;;;2.37;;
13204;SDS011;6667;52.634;9.226;2023-03-31T08:54:42;4.13;;;2.10;;
13204;SDS011;6667;52.634;9.226;2023-03-31T08:57:14;4.73;;;2.30;;
13204;SDS011;6667;52.634;9.226;2023-03-31T08:59:45;5.33;;;2.47;;
13204;SDS011;6667;52.634;9.226;2023-03-31T09:02:14;3.87;;;2.30;;
13204;SDS011;6667;52.634;9.226;2023-03-31T09:04:53;6.90;;;2.77;;
13204;SDS011;6667;52.634;9.226;2023-03-31T09:07:50;2.63;;;1.90;;
13204;SDS011;6667;52.634;9.226;2023-03-31T09:10:27;9.10;;;2.03;;
13204;SDS011;6667;52.634;9.226;2023-03-31T09:13:01;2.63;;;2.40;;
13204;SDS011;6667;52.634;9.226;2023-03-31T09:15:36;6.97;;;2.17;;
13204;SDS011;6667;52.634;9.226;2023-03-31T09:18:06;3.27;;;2.17;;
13204;SDS011;6667;52.634;9.226;2023-03-31T09:20:38;5.33;;;1.87;;
13204;SDS011;6667;52.634;9.226;2023-03-31T09:23:23;5.60;;;1.93;;
13204;SDS011;6667;52.634;9.226;2023-03-31T09:25:52;5.03;;;1.97;;
13204;SDS011;6667;52.634;9.226;2023-03-31T09:28:21;4.90;;;2.00;;
13204;SDS011;6667;52.634;9.226;2023-03-31T09:30:51;4.37;;;1.97;;
13204;SDS011;6667;52.634;9.226;2023-03-31T09:33:22;2.33;;;1.57;;
13204;SDS011;6667;52.634;9.226;2023-03-31T09:35:55;2.37;;;1.53;;
13204;SDS011;6667;52.634;9.226;2023-03-31T09:38:23;4.40;;;1.77;;
13204;SDS011;6667;52.634;9.226;2023-03-31T09:40:53;4.17;;;2.00;;
13204;SDS011;6667;52.634;9.226;2023-03-31T09:43:20;3.70;;;1.57;;
13204;SDS011;6667;52.634;9.226;2023-03-31T09:45:48;4.60;;;1.53;;
13204;SDS011;6667;52.634;9.226;2023-03-31T09:48:17;2.63;;;1.77;;
13204;SDS011;6667;52.634;9.226;2023-03-31T09:50:47;3.33;;;1.47;;
13204;SDS011;6667;52.634;9.226;2023-03-31T09:53:18;1.20;;;1.10;;
13204;SDS011;6667;52.634;9.226;2023-03-31T09:55:52;1.87;;;1.57;;
13204;SDS011;6667;52.634;9.226;2023-03-31T09:58:21;2.80;;;1.73;;
13204;SDS011;6667;52.634;9.226;2023-03-31T10:00:56;3.07;;;1.40;;
13204;SDS011;6667;52.634;9.226;2023-03-31T10:03:25;1.30;;;1.20;;
13204;SDS011;6667;52.634;9.226;2023-03-31T10:05:54;1.70;;;1.20;;
13204;SDS011;6667;52.634;9.226;2023-03-31T10:08:23;2.87;;;1.40;;
13204;SDS011;6667;52.634;9.226;2023-03-31T10:10:56;1.07;;;1.03;;
13204;SDS011;6667;52.634;9.226;2023-03-31T10:13:34;3.23;;;1.40;;
13204;SDS011;6667;52.634;9.226;2023-03-31T10:16:06;1.97;;;1.03;;
13204;SDS011;6667;52.634;9.226;2023-03-31T10:18:38;3.67;;;1.00;;
13204;SDS011;6667;52.634;9.226;2023-03-31T10:21:06;2.97;;;1.30;;
13204;SDS011;6667;52.634;9.226;2023-03-31T10:23:45;6.17;;;1.23;;
13204;SDS011;6667;52.634;9.226;2023-03-31T10:26:15;1.03;;;0.80;;
13204;SDS011;6667;52.634;9.226;2023-03-31T10:28:43;1.03;;;0.80;;
13204;SDS011;6667;52.634;9.226;2023-03-31T10:31:10;4.83;;;1.10;;
13204;SDS011;6667;52.634;9.226;2023-03-31T10:33:38;1.47;;;0.90;;
13204;SDS011;6667;52.634;9.226;2023-03-31T10:36:12;2.90;;;1.57;;
13204;SDS011;6667;52.634;9.226;2023-03-31T10:38:44;1.87;;;0.93;;
13204;SDS011;6667;52.634;9.226;2023-03-31T10:41:16;2.00;;;0.90;;
13204;SDS011;6667;52.634;9.226;2023-03-31T10:43:47;1.07;;;0.90;;
13204;SDS011;6667;52.634;9.226;2023-03-31T10:46:16;1.57;;;0.80;;
13204;SDS011;6667;52.634;9.226;2023-03-31T10:48:43;2.93;;;1.30;;
13204;SDS011;6667;52.634;9.226;2023-03-31T10:51:11;1.27;;;0.90;;
13204;SDS011;6667;52.634;9.226;2023-03-31T10:53:42;1.63;;;1.00;;
13204;SDS011;6667;52.634;9.226;2023-03-31T11:02:03;3.77;;;1.60;;
13204;SDS011;6667;52.634;9.226;2023-03-31T11:04:57;1.53;;;1.17;;
13204;SDS011;6667;52.634;9.226;2023-03-31T11:07:38;2.43;;;1.10;;
13204;SDS011;6667;52.634;9.226;2023-03-31T11:10:19;3.80;;;1.30;;
13204;SDS011;6667;52.634;9.226;2023-03-31T11:12:55;1.97;;;1.50;;
13204;SDS011;6667;52.634;9.226;2023-03-31T11:15:28;1.93;;;1.30;;
13204;SDS011;6667;52.634;9.226;2023-03-31T11:18:11;3.03;;;1.63;;
13204;SDS011;6667;52.634;9.226;2023-03-31T11:20:49;4.00;;;1.70;;
13204;SDS011;6667;52.634;9.226;2023-03-31T11:23:24;3.80;;;1.63;;
13204;SDS011;6667;52.634;9.226;2023-03-31T11:25:59;3.40;;;1.50;;
13204;SDS011;6667;52.634;9.226;2023-03-31T11:28:36;2.33;;;1.40;;
13204;SDS011;6667;52.634;9.226;2023-03-31T11:31:22;4.60;;;1.50;;
13204;SDS011;6667;52.634;9.226;2023-03-31T11:33:56;3.73;;;1.47;;
13204;SDS011;6667;52.634;9.226;2023-03-31T11:36:36;1.67;;;1.10;;
13204;SDS011;6667;52.634;9.226;2023-03-31T11:39:19;2.60;;;1.10;;
13204;SDS011;6667;52.634;9.226;2023-03-31T11:41:56;5.03;;;2.10;;
13204;SDS011;6667;52.634;9.226;2023-03-31T11:44:28;2.13;;;1.67;;
13204;SDS011;6667;52.634;9.226;2023-03-31T11:47:00;3.43;;;1.77;;
13204;SDS011;6667;52.634;9.226;2023-03-31T11:49:31;1.60;;;1.50;;
13204;SDS011;6667;52.634;9.226;2023-03-31T11:52:05;2.33;;;1.50;;
13204;SDS011;6667;52.634;9.226;2023-03-31T11:54:40;6.07;;;1.57;;
13204;SDS011;6667;52.634;9.226;2023-03-31T11:57:12;3.10;;;1.87;;
13204;SDS011;6667;52.634;9.226;2023-03-31T11:59:45;2.33;;;1.53;;
13204;SDS011;6667;52.634;9.226;2023-03-31T12:02:16;5.40;;;1.83;;
13204;SDS011;6667;52.634;9.226;2023-03-31T12:04:47;2.33;;;1.80;;
13204;SDS011;6667;52.634;9.226;2023-03-31T12:07:20;3.03;;;1.70;;
13204;SDS011;6667;52.634;9.226;2023-03-31T12:09:50;2.87;;;1.70;;
13204;SDS011;6667;52.634;9.226;2023-03-31T12:12:27;2.40;;;1.80;;
13204;SDS011;6667;52.634;9.226;2023-03-31T12:14:59;2.30;;;1.50;;
13204;SDS011;6667;52.634;9.226;2023-03-31T12:17:31;2.13;;;1.70;;
13204;SDS011;6667;52.634;9.226;2023-03-31T12:20:02;4.10;;;2.20;;
13204;SDS011;6667;52.634;9.226;2023-03-31T12:22:35;1.87;;;1.33;;
13204;SDS011;6667;52.634;9.226;2023-03-31T12:25:07;4.67;;;1.47;;
13204;SDS011;6667;52.634;9.226;2023-03-31T12:27:38;4.50;;;1.57;;
13204;SDS011;6667;52.634;9.226;2023-03-31T12:30:08;4.43;;;1.83;;
13204;SDS011;6667;52.634;9.226;2023-03-31T12:32:38;2.40;;;1.50;;
13204;SDS011;6667;52.634;9.226;2023-03-31T12:35:09;1.80;;;1.13;;
13204;SDS011;6667;52.634;9.226;2023-03-31T12:37:59;3.03;;;1.60;;
13204;SDS011;6667;52.634;9.226;2023-03-31T12:40:54;2.67;;;1.40;;
13204;SDS011;6667;52.634;9.226;2023-03-31T12:43:29;3.20;;;1.67;;
13204;SDS011;6667;52.634;9.226;2023-03-31T12:46:16;3.00;;;1.33;;
13204;SDS011;6667;52.634;9.226;2023-03-31T12:49:02;2.40;;;1.60;;
13204;SDS011;6667;52.634;9.226;2023-03-31T12:51:38;3.53;;;1.70;;
13204;SDS011;6667;52.634;9.226;2023-03-31T12:54:22;3.40;;;1.67;;
13204;SDS011;6667;52.634;9.226;2023-03-31T12:57:12;2.87;;;1.20;;
13204;SDS011;6667;52.634;9.226;2023-03-31T12:59:41;2.40;;;1.40;;
13204;SDS011;6667;52.634;9.226;2023-03-31T13:02:24;2.40;;;1.40;;
13204;SDS011;6667;52.634;9.226;2023-03-31T13:04:51;2.87;;;1.53;;
13204;SDS011;6667;52.634;9.226;2023-03-31T13:07:38;3.37;;;1.63;;
13204;SDS011;6667;52.634;9.226;2023-03-31T13:10:26;3.43;;;1.57;;
13204;SDS011;6667;52.634;9.226;2023-03-31T13:12:55;1.90;;;1.47;;
13204;SDS011;6667;52.634;9.226;2023-03-31T13:15:28;2.93;;;1.73;;
13204;SDS011;6667;52.634;9.226;2023-03-31T13:17:58;3.37;;;1.63;;
13204;SDS011;6667;52.634;9.226;2023-03-31T13:20:30;3.93;;;2.63;;
13204;SDS011;6667;52.634;9.226;2023-03-31T13:23:01;4.17;;;1.70;;
13204;SDS011;6667;52.634;9.226;2023-03-31T13:25:41;3.40;;;1.80;;
13204;SDS011;6667;52.634;9.226;2023-03-31T13:28:13;4.37;;;1.70;;
13204;SDS011;6667;52.634;9.226;2023-03-31T13:30:46;2.73;;;1.87;;
13204;SDS011;6667;52.634;9.226;2023-03-31T13:33:17;5.37;;;2.00;;
13204;SDS011;6667;52.634;9.226;2023-03-31T13:35:46;4.43;;;1.93;;
13204;SDS011;6667;52.634;9.226;2023-03-31T13:38:18;1.87;;;1.40;;
13204;SDS011;6667;52.634;9.226;2023-03-31T13:40:54;4.00;;;2.13;;
13204;SDS011;6667;52.634;9.226;2023-03-31T13:43:30;4.30;;;1.80;;
13204;SDS011;6667;52.634;9.226;2023-03-31T13:46:15;2.63;;;1.80;;
13204;SDS011;6667;52.634;9.226;2023-03-31T13:49:12;4.97;;;2.10;;
13204;SDS011;6667;52.634;9.226;2023-03-31T13:51:58;4.50;;;2.03;;
13204;SDS011;6667;52.634;9.226;2023-03-31T13:54:35;3.93;;;2.10;;
13204;SDS011;6667;52.634;9.226;2023-03-31T13:57:27;2.83;;;1.63;;
13204;SDS011;6667;52.634;9.226;2023-03-31T14:00:24;5.10;;;2.20;;
13204;SDS011;6667;52.634;9.226;2023-03-31T14:03:11;2.60;;;1.73;;
13204;SDS011;6667;52.634;9.226;2023-03-31T14:05:47;3.43;;;1.73;;
13204;SDS011;6667;52.634;9.226;2023-03-31T14:08:23;4.23;;;2.03;;
13204;SDS011;6667;52.634;9.226;2023-03-31T14:13:42;2.73;;;1.80;;
13204;SDS011;6667;52.634;9.226;2023-03-31T14:16:08;5.73;;;2.43;;
13204;SDS011;6667;52.634;9.226;2023-03-31T14:18:37;6.53;;;2.30;;
13204;SDS011;6667;52.634;9.226;2023-03-31T14:21:16;2.73;;;2.10;;
13204;SDS011;6667;52.634;9.226;2023-03-31T14:23:54;5.43;;;2.23;;
13204;SDS011;6667;52.634;9.226;2023-03-31T14:26:33;5.97;;;2.77;;
13204;SDS011;6667;52.634;9.226;2023-03-31T14:29:12;4.30;;;2.50;;
13204;SDS011;6667;52.634;9.226;2023-03-31T14:31:46;6.20;;;2.63;;
13204;SDS011;6667;52.634;9.226;2023-03-31T14:34:22;6.93;;;2.73;;
13204;SDS011;6667;52.634;9.226;2023-03-31T14:37:10;3.93;;;2.60;;
13204;SDS011;6667;52.634;9.226;2023-03-31T14:39:42;4.93;;;2.80;;
13204;SDS011;6667;52.634;9.226;2023-03-31T14:42:12;5.67;;;2.37;;
13204;SDS011;6667;52.634;9.226;2023-03-31T14:44:40;5.60;;;2.63;;
13204;SDS011;6667;52.634;9.226;2023-03-31T14:47:11;4.90;;;2.70;;
13204;SDS011;6667;52.634;9.226;2023-03-31T14:49:39;5.83;;;2.70;;
13204;SDS011;6667;52.634;9.226;2023-03-31T14:52:12;6.50;;;2.30;;
13204;SDS011;6667;52.634;9.226;2023-03-31T14:54:42;5.20;;;2.07;;
13204;SDS011;6667;52.634;9.226;2023-03-31T14:57:11;4.93;;;1.90;;
13204;SDS011;6667;52.634;9.226;2023-03-31T14:59:40;4.63;;;2.20;;
13204;SDS011;6667;52.634;9.226;2023-03-31T15:02:08;6.30;;;2.40;;
13204;SDS011;6667;52.634;9.226;2023-03-31T15:04:40;6.63;;;2.33;;
13204;SDS011;6667;52.634;9.226;2023-03-31T15:07:11;5.50;;;2.27;;
13204;SDS011;6667;52.634;9.226;2023-03-31T15:09:38;6.67;;;2.50;;
13204;SDS011;6667;52.634;9.226;2023-03-31T15:12:10;4.47;;;2.00;;
13204;SDS011;6667;52.634;9.226;2023-03-31T15:14:41;4.70;;;2.53;;
13204;SDS011;6667;52.634;9.226;2023-03-31T15:17:15;4.23;;;2.37;;
13204;SDS011;6667;52.634;9.226;2023-03-31T15:19:43;3.00;;;2.10;;
13204;SDS011;6667;52.634;9.226;2023-03-31T15:22:13;5.90;;;2.13;;
13204;SDS011;6667;52.634;9.226;2023-03-31T15:24:42;2.90;;;2.03;;
13204;SDS011;6667;52.634;9.226;2023-03-31T15:27:12;3.87;;;1.97;;
13204;SDS011;6667;52.634;9.226;2023-03-31T15:29:42;5.17;;;2.30;;
13204;SDS011;6667;52.634;9.226;2023-03-31T15:32:12;4.53;;;2.00;;
13204;SDS011;6667;52.634;9.226;2023-03-31T15:34:42;6.43;;;2.30;;
13204;SDS011;6667;52.634;9.226;2023-03-31T15:37:11;5.90;;;2.10;;
13204;SDS011;6667;52.634;9.226;2023-03-31T15:39:38;3.83;;;1.93;;
13204;SDS011;6667;52.634;9.226;2023-03-31T15:42:11;3.20;;;1.67;;
13204;SDS011;6667;52.634;9.226;2023-03-31T15:44:38;6.37;;;1.90;;
13204;SDS011;6667;52.634;9.226;2023-03-31T15:47:16;4.97;;;2.03;;
13204;SDS011;6667;52.634;9.226;2023-03-31T15:49:52;2.37;;;1.80;;
13204;SDS011;6667;52.634;9.226;2023-03-31T15:52:23;3.60;;;1.93;;
13204;SDS011;6667;52.634;9.226;2023-03-31T15:54:54;5.67;;;2.10;;
13204;SDS011;6667;52.634;9.226;2023-03-31T15:57:20;6.90;;;2.27;;
13204;SDS011;6667;52.634;9.226;2023-03-31T15:59:57;3.90;;;1.80;;
13204;SDS011;6667;52.634;9.226;2023-03-31T16:02:24;5.70;;;2.13;;
13204;SDS011;6667;52.634;9.226;2023-03-31T16:05:00;4.23;;;2.23;;
13204;SDS011;6667;52.634;9.226;2023-03-31T16:07:28;5.07;;;1.90;;
13204;SDS011;6667;52.634;9.226;2023-03-31T16:09:59;3.17;;;1.70;;
13204;SDS011;6667;52.634;9.226;2023-03-31T16:12:30;4.47;;;2.20;;
13204;SDS011;6667;52.634;9.226;2023-03-31T16:15:01;3.73;;;1.83;;
13204;SDS011;6667;52.634;9.226;2023-03-31T16:17:33;5.57;;;2.07;;
13204;SDS011;6667;52.634;9.226;2023-03-31T16:20:03;3.90;;;1.77;;
13204;SDS011;6667;52.634;9.226;2023-03-31T16:22:36;5.40;;;2.67;;
13204;SDS011;6667;52.634;9.226;2023-03-31T16:25:09;6.27;;;1.90;;
13204;SDS011;6667;52.634;9.226;2023-03-31T16:27:38;4.90;;;1.87;;
13204;SDS011;6667;52.634;9.226;2023-03-31T16:30:12;3.73;;;2.03;;
13204;SDS011;6667;52.634;9.226;2023-03-31T16:35:28;4.80;;;1.77;;
13204;SDS011;6667;52.634;9.226;2023-03-31T16:37:57;5.33;;;1.87;;
13204;SDS011;6667;52.634;9.226;2023-03-31T16:40:25;5.27;;;2.00;;
13204;SDS011;6667;52.634;9.226;2023-03-31T16:43:05;6.03;;;2.97;;
13204;SDS011;6667;52.634;9.226;2023-03-31T16:45:36;2.40;;;1.80;;
13204;SDS011;6667;52.634;9.226;2023-03-31T16:48:03;4.17;;;1.40;;
13204;SDS011;6667;52.634;9.226;2023-03-31T16:50:30;4.27;;;1.70;;
13204;SDS011;6667;52.634;9.226;2023-03-31T16:53:00;3.77;;;1.63;;
13204;SDS011;6667;52.634;9.226;2023-03-31T16:55:27;4.10;;;1.53;;
13204;SDS011;6667;52.634;9.226;2023-03-31T16:57:55;3.50;;;1.70;;
13204;SDS011;6667;52.634;9.226;2023-03-31T17:00:22;3.50;;;2.03;;
13204;SDS011;6667;52.634;9.226;2023-03-31T17:02:49;7.70;;;2.53;;
13204;SDS011;6667;52.634;9.226;2023-03-31T17:05:15;5.30;;;2.83;;
13204;SDS011;6667;52.634;9.226;2023-03-31T17:07:44;3.20;;;2.60;;
13204;SDS011;6667;52.634;9.226;2023-03-31T17:10:12;4.43;;;2.23;;
13204;SDS011;6667;52.634;9.226;2023-03-31T17:12:40;4.67;;;2.53;;
13204;SDS011;6667;52.634;9.226;2023-03-31T17:15:07;3.60;;;2.20;;
13204;SDS011;6667;52.634;9.226;2023-03-31T17:17:34;4.67;;;2.50;;
13204;SDS011;6667;52.634;9.226;2023-03-31T17:20:01;5.57;;;2.53;;
13204;SDS011;6667;52.634;9.226;2023-03-31T17:22:28;3.97;;;2.03;;
13204;SDS011;6667;52.634;9.226;2023-03-31T17:24:55;4.23;;;2.27;;
13204;SDS011;6667;52.634;9.226;2023-03-31T17:27:24;6.00;;;1.93;;
13204;SDS011;6667;52.634;9.226;2023-03-31T17:29:51;4.37;;;2.60;;
13204;SDS011;6667;52.634;9.226;2023-03-31T17:32:18;4.80;;;2.20;;
13204;SDS011;6667;52.634;9.226;2023-03-31T17:34:45;3.97;;;2.10;;
13204;SDS011;6667;52.634;9.226;2023-03-31T17:37:12;4.67;;;2.30;;
13204;SDS011;6667;52.634;9.226;2023-03-31T17:39:40;3.00;;;2.20;;
13204;SDS011;6667;52.634;9.226;2023-03-31T17:42:07;3.00;;;2.23;;
13204;SDS011;6667;52.634;9.226;2023-03-31T17:44:36;6.13;;;3.23;;
13204;SDS011;6667;52.634;9.226;2023-03-31T17:47:02;5.37;;;3.20;;
13204;SDS011;6667;52.634;9.226;2023-03-31T17:49:29;7.37;;;3.33;;
13204;SDS011;6667;52.634;9.226;2023-03-31T17:51:57;10.57;;;4.13;;
13204;SDS011;6667;52.634;9.226;2023-03-31T17:54:24;9.93;;;5.30;;
13204;SDS011;6667;52.634;9.226;2023-03-31T17:56:51;5.03;;;2.97;;
13204;SDS011;6667;52.634;9.226;2023-03-31T17:59:18;4.57;;;2.53;;
13204;SDS011;6667;52.634;9.226;2023-03-31T18:01:47;4.97;;;2.60;;
13204;SDS011;6667;52.634;9.226;2023-03-31T18:04:14;6.40;;;2.40;;
13204;SDS011;6667;52.634;9.226;2023-03-31T18:06:41;4.77;;;2.30;;
13204;SDS011;6667;52.634;9.226;2023-03-31T18:09:08;8.67;;;3.23;;
13204;SDS011;6667;52.634;9.226;2023-03-31T18:11:35;4.00;;;2.87;;
13204;SDS011;6667;52.634;9.226;2023-03-31T18:14:02;5.23;;;3.53;;
13204;SDS011;6667;52.634;9.226;2023-03-31T18:16:30;5.17;;;3.13;;
13204;SDS011;6667;52.634;9.226;2023-03-31T18:18:59;5.87;;;3.23;;
13204;SDS011;6667;52.634;9.226;2023-03-31T18:21:26;5.10;;;3.20;;
13204;SDS011;6667;52.634;9.226;2023-03-31T18:23:54;7.47;;;3.27;;
13204;SDS011;6667;52.634;9.226;2023-03-31T18:26:22;4.87;;;3.43;;
13204;SDS011;6667;52.634;9.226;2023-03-31T18:28:51;6.20;;;3.37;;
13204;SDS011;6667;52.634;9.226;2023-03-31T18:31:18;5.93;;;2.90;;
13204;SDS011;6667;52.634;9.226;2023-03-31T18:33:46;6.67;;;3.23;;
13204;SDS011;6667;52.634;9.226;2023-03-31T18:36:17;6.47;;;3.47;;
13204;SDS011;6667;52.634;9.226;2023-03-31T18:38:45;7.00;;;4.13;;
13204;SDS011;6667;52.634;9.226;2023-03-31T18:41:14;6.60;;;3.73;;
13204;SDS011;6667;52.634;9.226;2023-03-31T18:43:44;6.80;;;3.80;;
13204;SDS011;6667;52.634;9.226;2023-03-31T18:46:12;8.87;;;3.80;;
13204;SDS011;6667;52.634;9.226;2023-03-31T18:48:40;6.03;;;3.47;;
13204;SDS011;6667;52.634;9.226;2023-03-31T18:51:07;8.90;;;3.17;;
13204;SDS011;6667;52.634;9.226;2023-03-31T18:53:35;4.87;;;2.97;;
13204;SDS011;6667;52.634;9.226;2023-03-31T18:56:02;6.50;;;3.20;;
13204;SDS011;6667;52.634;9.226;2023-03-31T18:58:30;5.73;;;2.70;;
13204;SDS011;6667;52.634;9.226;2023-03-31T19:00:58;7.70;;;3.00;;
13204;SDS011;6667;52.634;9.226;2023-03-31T19:03:26;4.97;;;2.67;;
13204;SDS011;6667;52.634;9.226;2023-03-31T19:05:58;6.93;;;2.63;;
13204;SDS011;6667;52.634;9.226;2023-03-31T19:08:27;3.80;;;2.37;;
13204;SDS011;6667;52.634;9.226;2023-03-31T19:11:03;5.70;;;2.73;;
13204;SDS011;6667;52.634;9.226;2023-03-31T19:13:31;7.30;;;2.90;;
13204;SDS011;6667;52.634;9.226;2023-03-31T19:15:59;5.53;;;2.27;;
13204;SDS011;6667;52.634;9.226;2023-03-31T19:18:26;2.97;;;2.17;;
13204;SDS011;6667;52.634;9.226;2023-03-31T19:20:54;10.33;;;2.80;;
13204;SDS011;6667;52.634;9.226;2023-03-31T19:23:21;3.47;;;2.60;;
13204;SDS011;6667;52.634;9.226;2023-03-31T19:25:51;3.63;;;2.50;;
13204;SDS011;6667;52.634;9.226;2023-03-31T19:28:21;6.23;;;2.40;;
13204;SDS011;6667;52.634;9.226;2023-03-31T19:30:50;9.20;;;2.50;;
13204;SDS011;6667;52.634;9.226;2023-03-31T19:33:18;6.63;;;2.80;;
13204;SDS011;6667;52.634;9.226;2023-03-31T19:35:46;4.40;;;2.50;;
13204;SDS011;6667;52.634;9.226;2023-03-31T19:38:15;5.77;;;2.43;;
13204;SDS011;6667;52.634;9.226;2023-03-31T19:40:43;2.30;;;2.10;;
13204;SDS011;6667;52.634;9.226;2023-03-31T19:43:12;4.43;;;2.07;;
13204;SDS011;6667;52.634;9.226;2023-03-31T19:45:45;5.23;;;2.07;;
13204;SDS011;6667;52.634;9.226;2023-03-31T19:48:12;4.87;;;2.00;;
13204;SDS011;6667;52.634;9.226;2023-03-31T19:50:39;4.13;;;1.57;;
13204;SDS011;6667;52.634;9.226;2023-03-31T19:53:11;4.10;;;1.50;;
13204;SDS011;6667;52.634;9.226;2023-03-31T19:55:39;4.83;;;1.70;;
13204;SDS011;6667;52.634;9.226;2023-03-31T19:58:07;3.73;;;1.57;;
13204;SDS011;6667;52.634;9.226;2023-03-31T20:00:35;8.27;;;1.90;;
13204;SDS011;6667;52.634;9.226;2023-03-31T20:03:03;4.07;;;1.90;;
13204;SDS011;6667;52.634;9.226;2023-03-31T20:05:30;6.63;;;2.17;;
13204;SDS011;6667;52.634;9.226;2023-03-31T20:07:59;3.37;;;1.60;;
13204;SDS011;6667;52.634;9.226;2023-03-31T20:10:26;6.03;;;2.50;;
13204;SDS011;6667;52.634;9.226;2023-03-31T20:12:53;3.20;;;2.00;;
13204;SDS011;6667;52.634;9.226;2023-03-31T20:15:21;3.90;;;1.90;;
13204;SDS011;6667;52.634;9.226;2023-03-31T20:17:48;5.00;;;2.00;;
13204;SDS011;6667;52.634;9.226;2023-03-31T20:20:17;6.23;;;1.73;;
13204;SDS011;6667;52.634;9.226;2023-03-31T20:22:44;4.70;;;1.70;;
13204;SDS011;6667;52.634;9.226;2023-03-31T20:25:11;3.33;;;1.60;;
13204;SDS011;6667;52.634;9.226;2023-03-31T20:27:38;5.70;;;1.73;;
13204;SDS011;6667;52.634;9.226;2023-03-31T20:30:06;3.13;;;1.60;;
13204;SDS011;6667;52.634;9.226;2023-03-31T20:32:34;2.90;;;1.40;;
13204;SDS011;6667;52.634;9.226;2023-03-31T20:35:04;3.07;;;1.43;;
13204;SDS011;6667;52.634;9.226;2023-03-31T20:37:38;2.87;;;1.53;;
13204;SDS011;6667;52.634;9.226;2023-03-31T20:40:05;5.10;;;1.63;;
13204;SDS011;6667;52.634;9.226;2023-03-31T20:42:33;5.03;;;1.93;;
13204;SDS011;6667;52.634;9.226;2023-03-31T20:45:00;2.87;;;1.60;;
13204;SDS011;6667;52.634;9.226;2023-03-31T20:47:29;4.33;;;1.77;;
13204;SDS011;6667;52.634;9.226;2023-03-31T20:49:58;4.27;;;1.70;;
13204;SDS011;6667;52.634;9.226;2023-03-31T20:52:26;3.30;;;1.50;;
13204;SDS011;6667;52.634;9.226;2023-03-31T20:54:55;4.00;;;1.50;;
13204;SDS011;6667;52.634;9.226;2023-03-31T20:57:22;4.23;;;1.60;;
13204;SDS011;6667;52.634;9.226;2023-03-31T20:59:50;2.97;;;2.53;;
13204;SDS011;6667;52.634;9.226;2023-03-31T21:02:17;5.40;;;2.10;;
13204;SDS011;6667;52.634;9.226;2023-03-31T21:04:43;1.93;;;1.40;;
13204;SDS011;6667;52.634;9.226;2023-03-31T21:07:10;3.27;;;1.57;;
13204;SDS011;6667;52.634;9.226;2023-03-31T21:09:37;7.50;;;1.73;;
13204;SDS011;6667;52.634;9.226;2023-03-31T21:12:05;4.60;;;1.87;;
13204;SDS011;6667;52.634;9.226;2023-03-31T21:14:32;2.37;;;1.53;;
13204;SDS011;6667;52.634;9.226;2023-03-31T21:16:58;6.00;;;1.57;;
13204;SDS011;6667;52.634;9.226;2023-03-31T21:19:25;2.03;;;1.37;;
13204;SDS011;6667;52.634;9.226;2023-03-31T21:21:51;3.60;;;1.47;;
13204;SDS011;6667;52.634;9.226;2023-03-31T21:24:18;4.20;;;1.30;;
13204;SDS011;6667;52.634;9.226;2023-03-31T21:26:46;3.10;;;1.70;;
13204;SDS011;6667;52.634;9.226;2023-03-31T21:29:14;3.27;;;1.37;;
13204;SDS011;6667;52.634;9.226;2023-03-31T21:31:40;1.77;;;1.37;;
13204;SDS011;6667;52.634;9.226;2023-03-31T21:34:08;4.60;;;1.83;;